createdAt,value
2022-10-22T00:01:00.290Z,20.60
2022-10-22T00:03:36.554Z,20.50
2022-10-22T00:06:11.168Z,20.60
2022-10-22T00:08:45.557Z,20.70
2022-10-22T00:11:21.600Z,20.70
2022-10-22T00:13:56.069Z,20.70
2022-10-22T00:16:30.211Z,20.70
2022-10-22T00:19:10.482Z,20.70
2022-10-22T00:21:43.984Z,20.80
2022-10-22T00:24:21.031Z,20.80
2022-10-22T00:26:55.073Z,20.90
2022-10-22T00:29:32.064Z,20.80
2022-10-22T00:32:06.680Z,20.70
2022-10-22T00:34:42.765Z,20.70
2022-10-22T00:37:17.561Z,20.70
2022-10-22T00:39:51.996Z,20.70
2022-10-22T00:42:32.531Z,20.70
2022-10-22T00:45:20.028Z,20.60
2022-10-22T00:48:01.872Z,20.80
2022-10-22T00:50:41.646Z,20.70
2022-10-22T00:53:19.131Z,20.90
2022-10-22T00:55:55.701Z,20.90
2022-10-22T00:58:34.104Z,20.90
2022-10-22T01:01:09.213Z,20.90
2022-10-22T01:03:44.152Z,21.00
2022-10-22T01:06:27.568Z,21.00
2022-10-22T01:09:17.389Z,21.40
2022-10-22T01:12:02.732Z,21.80
2022-10-22T01:14:44.837Z,21.90
2022-10-22T01:17:27.631Z,21.70
2022-10-22T01:20:16.257Z,21.80
2022-10-22T01:23:04.887Z,22.40
2022-10-22T01:25:42.443Z,23.20
2022-10-22T01:28:27.152Z,24.00
2022-10-22T01:31:08.468Z,24.20
2022-10-22T01:33:45.808Z,24.10
2022-10-22T01:36:22.483Z,23.90
2022-10-22T01:38:58.164Z,24.30
2022-10-22T01:41:34.484Z,24.50
2022-10-22T01:44:09.275Z,24.50
2022-10-22T01:46:46.250Z,25.20
2022-10-22T01:49:28.034Z,25.20
2022-10-22T01:52:13.640Z,25.40
2022-10-22T01:55:02.298Z,25.30
2022-10-22T01:57:47.369Z,26.20
2022-10-22T02:00:23.276Z,26.00
2022-10-22T02:03:05.497Z,26.00
2022-10-22T02:05:45.060Z,25.90
2022-10-22T02:08:22.458Z,27.00
2022-10-22T02:11:00.586Z,27.60
2022-10-22T02:13:39.848Z,27.40
2022-10-22T02:16:31.431Z,27.30
2022-10-22T02:19:12.062Z,26.50
2022-10-22T02:21:47.017Z,26.80
2022-10-22T02:24:22.955Z,27.00
2022-10-22T02:27:02.966Z,27.60
2022-10-22T02:29:43.532Z,28.00
2022-10-22T02:32:26.160Z,28.20
2022-10-22T02:35:04.262Z,28.10
2022-10-22T02:37:39.369Z,27.60
2022-10-22T02:40:14.405Z,27.80
2022-10-22T02:42:51.552Z,27.90
2022-10-22T02:45:26.039Z,27.60
2022-10-22T02:48:03.429Z,27.20
2022-10-22T02:50:40.981Z,26.40
2022-10-22T02:53:15.925Z,26.70
2022-10-22T02:55:50.324Z,26.70
2022-10-22T02:58:25.579Z,26.20
2022-10-22T03:01:02.905Z,26.10
2022-10-22T03:03:37.398Z,26.00
2022-10-22T03:06:14.536Z,26.20
2022-10-22T03:08:50.855Z,26.20
2022-10-22T03:11:27.103Z,26.40
2022-10-22T03:14:01.578Z,26.90
2022-10-22T03:16:40.170Z,27.30
2022-10-22T03:19:14.905Z,26.90
2022-10-22T03:21:55.373Z,26.80
2022-10-22T03:24:33.207Z,26.30
2022-10-22T03:27:08.691Z,26.40
2022-10-22T03:29:45.489Z,26.70
2022-10-22T03:32:21.867Z,27.00
2022-10-22T03:37:43.311Z,27.00
2022-10-22T03:40:20.100Z,27.00
2022-10-22T03:42:59.174Z,27.10
2022-10-22T03:45:34.922Z,26.90
2022-10-22T03:48:10.537Z,26.70
2022-10-22T03:50:44.090Z,27.00
2022-10-22T03:53:20.766Z,27.40
2022-10-22T03:55:56.255Z,27.30
2022-10-22T03:58:32.612Z,27.00
2022-10-22T04:01:13.324Z,27.10
2022-10-22T04:03:50.706Z,27.30
2022-10-22T04:06:25.864Z,27.30
2022-10-22T04:09:04.001Z,27.20
2022-10-22T04:11:37.942Z,26.90
2022-10-22T04:14:13.169Z,26.60
2022-10-22T04:16:50.028Z,27.10
2022-10-22T04:19:25.158Z,26.80
2022-10-22T04:22:01.000Z,26.70
2022-10-22T04:24:39.394Z,26.70
2022-10-22T04:27:13.523Z,27.00
2022-10-22T04:29:52.903Z,26.70
2022-10-22T04:32:26.998Z,26.60
2022-10-22T04:35:03.004Z,26.60
2022-10-22T04:37:39.123Z,26.60
2022-10-22T04:43:11.044Z,26.80
2022-10-22T04:45:49.093Z,26.70
2022-10-22T04:48:24.981Z,26.80
2022-10-22T04:51:00.792Z,26.70
2022-10-22T04:53:37.199Z,27.00
2022-10-22T04:56:27.140Z,26.90
2022-10-22T04:59:04.248Z,27.00
2022-10-22T05:01:43.914Z,27.20
2022-10-22T05:04:21.323Z,27.40
2022-10-22T05:06:58.013Z,27.10
2022-10-22T05:09:33.626Z,27.10
2022-10-22T05:12:09.999Z,27.10
2022-10-22T05:14:46.965Z,27.20
2022-10-22T05:17:24.645Z,27.20
2022-10-22T05:20:11.233Z,27.40
2022-10-22T05:22:47.033Z,27.30
2022-10-22T05:25:26.110Z,27.50
2022-10-22T05:28:01.723Z,27.40
2022-10-22T05:30:37.907Z,27.20
2022-10-22T05:33:12.387Z,27.20
2022-10-22T05:35:47.550Z,27.30
2022-10-22T05:38:26.032Z,27.50
2022-10-22T05:41:10.304Z,27.50
2022-10-22T05:43:51.732Z,27.60
2022-10-22T05:46:30.423Z,27.70
2022-10-22T05:49:06.096Z,27.60
2022-10-22T05:51:44.403Z,27.60
2022-10-22T05:54:23.812Z,27.70
2022-10-22T05:56:59.513Z,27.90
2022-10-22T05:59:39.483Z,28.00
2022-10-22T06:02:17.581Z,28.00
2022-10-22T06:04:58.291Z,27.90
2022-10-22T06:07:34.858Z,27.60
2022-10-22T06:10:10.701Z,27.60
2022-10-22T06:12:44.517Z,27.40
2022-10-22T06:15:23.623Z,27.50
2022-10-22T06:18:14.033Z,27.70
2022-10-22T06:20:55.631Z,27.90
2022-10-22T06:23:37.768Z,27.90
2022-10-22T06:26:12.934Z,27.90
2022-10-22T06:28:47.612Z,27.90
2022-10-22T06:31:24.225Z,27.90
2022-10-22T06:33:59.218Z,27.80
2022-10-22T06:36:39.140Z,27.70
2022-10-22T06:39:23.079Z,27.80
2022-10-22T06:41:57.450Z,27.80
2022-10-22T06:44:31.021Z,27.70
2022-10-22T06:47:08.894Z,27.80
2022-10-22T06:49:44.864Z,27.80
2022-10-22T06:52:30.574Z,27.90
2022-10-22T06:55:06.635Z,27.80
2022-10-22T06:57:41.651Z,27.70
2022-10-22T07:00:19.256Z,27.70
2022-10-22T07:02:59.963Z,27.80
2022-10-22T07:05:36.717Z,27.80
2022-10-22T07:08:14.245Z,27.80
2022-10-22T07:10:49.450Z,27.70
2022-10-22T07:13:26.811Z,27.70
2022-10-22T07:16:00.446Z,27.70
2022-10-22T07:18:43.712Z,27.70
2022-10-22T07:21:19.390Z,27.80
2022-10-22T07:23:54.069Z,27.80
2022-10-22T07:26:32.257Z,27.60
2022-10-22T07:29:09.054Z,27.60
2022-10-22T07:31:42.731Z,27.70
2022-10-22T07:34:23.450Z,27.70
2022-10-22T07:36:58.690Z,27.70
2022-10-22T07:39:33.466Z,27.60
2022-10-22T07:42:08.365Z,27.50
2022-10-22T07:44:44.527Z,27.40
2022-10-22T07:47:19.250Z,27.40
2022-10-22T07:49:58.840Z,27.40
2022-10-22T07:52:34.664Z,27.40
2022-10-22T07:55:14.604Z,27.20
2022-10-22T07:57:49.551Z,27.30
2022-10-22T08:00:30.040Z,27.40
2022-10-22T08:03:05.964Z,27.40
2022-10-22T08:05:44.992Z,27.40
2022-10-22T08:08:21.071Z,27.30
2022-10-22T08:11:03.130Z,27.60
2022-10-22T08:13:39.461Z,27.60
2022-10-22T08:16:19.531Z,27.60
2022-10-22T08:18:58.510Z,27.60
2022-10-22T08:21:42.813Z,27.50
2022-10-22T08:24:19.226Z,27.50
2022-10-22T08:26:57.287Z,27.30
2022-10-22T08:29:32.740Z,27.30
2022-10-22T08:32:09.050Z,27.40
2022-10-22T08:34:43.729Z,27.60
2022-10-22T08:37:24.309Z,27.60
2022-10-22T08:39:59.099Z,27.50
2022-10-22T08:43:04.508Z,27.60
2022-10-22T08:45:47.464Z,27.50
2022-10-22T08:48:38.977Z,27.50
2022-10-22T08:51:20.456Z,27.40
2022-10-22T08:54:18.204Z,27.30
2022-10-22T08:56:59.632Z,27.20
2022-10-22T08:59:39.302Z,27.30
2022-10-22T09:02:27.524Z,27.30
2022-10-22T09:05:17.773Z,27.30
2022-10-22T09:07:51.938Z,27.20
2022-10-22T09:10:33.609Z,27.10
2022-10-22T09:13:11.793Z,27.20
2022-10-22T09:15:54.031Z,27.10
2022-10-22T09:18:41.067Z,27.00
2022-10-22T09:21:25.069Z,26.90
2022-10-22T09:24:13.893Z,26.80
2022-10-22T09:26:50.942Z,26.70
2022-10-22T09:29:38.807Z,26.60
2022-10-22T09:32:13.927Z,26.60
2022-10-22T09:34:49.992Z,26.60
2022-10-22T09:37:28.902Z,26.50
2022-10-22T09:40:08.186Z,26.50
2022-10-22T09:42:47.327Z,26.50
2022-10-22T09:45:29.775Z,26.40
2022-10-22T09:48:16.701Z,26.40
2022-10-22T09:50:50.951Z,26.40
2022-10-22T09:53:26.761Z,26.30
2022-10-22T09:56:07.196Z,26.20
2022-10-22T09:58:56.389Z,26.20
2022-10-22T10:01:32.160Z,26.20
2022-10-22T10:04:18.792Z,26.20
2022-10-22T10:06:59.692Z,26.10
2022-10-22T10:09:38.063Z,26.10
2022-10-22T10:12:29.298Z,26.00
2022-10-22T10:15:13.261Z,26.00
2022-10-22T10:17:54.002Z,26.00
2022-10-22T10:20:45.794Z,25.90
2022-10-22T10:23:31.846Z,25.90
2022-10-22T10:26:13.233Z,25.90
2022-10-22T10:29:02.060Z,25.80
2022-10-22T10:31:56.089Z,25.80
2022-10-22T10:34:38.615Z,25.80
2022-10-22T10:37:26.488Z,25.80
2022-10-22T10:40:26.918Z,25.80
2022-10-22T10:43:06.592Z,25.70
2022-10-22T10:45:48.337Z,25.70
2022-10-22T10:48:46.707Z,25.70
2022-10-22T10:51:42.045Z,25.60
2022-10-22T10:54:40.100Z,25.60
2022-10-22T10:57:27.610Z,25.60
2022-10-22T11:00:11.392Z,25.60
2022-10-22T11:03:22.622Z,25.60
2022-10-22T11:06:04.334Z,25.60
2022-10-22T11:08:43.368Z,25.60
2022-10-22T11:11:25.985Z,25.60
2022-10-22T11:14:06.542Z,25.50
2022-10-22T11:16:45.299Z,25.50
2022-10-22T11:19:39.620Z,25.50
2022-10-22T11:22:28.684Z,25.50
2022-10-22T11:25:13.446Z,25.40
2022-10-22T11:27:57.514Z,25.40
2022-10-22T11:30:39.201Z,25.40
2022-10-22T11:33:19.465Z,25.40
2022-10-22T11:35:58.190Z,25.30
2022-10-22T11:38:37.420Z,25.30
2022-10-22T11:41:19.952Z,25.30
2022-10-22T11:44:15.855Z,25.30
2022-10-22T11:47:00.343Z,25.30
2022-10-22T11:49:48.716Z,25.30
2022-10-22T11:52:42.649Z,25.30
2022-10-22T11:55:49.701Z,25.20
2022-10-22T11:58:40.413Z,25.20
2022-10-22T12:01:40.736Z,25.20
2022-10-22T12:04:44.545Z,25.20
2022-10-22T12:07:38.009Z,25.20
2022-10-22T12:10:26.618Z,25.20
2022-10-22T12:13:09.709Z,25.20
2022-10-22T12:15:57.157Z,25.10
2022-10-22T12:18:34.625Z,25.10
2022-10-22T12:21:10.725Z,25.10
2022-10-22T12:23:47.881Z,25.10
2022-10-22T12:26:32.532Z,25.00
2022-10-22T12:29:15.350Z,25.00
2022-10-22T12:31:55.457Z,25.00
2022-10-22T12:34:33.198Z,25.00
2022-10-22T12:37:10.375Z,25.00
2022-10-22T12:39:49.991Z,24.90
2022-10-22T12:42:25.220Z,24.90
2022-10-22T12:45:04.137Z,24.90
2022-10-22T12:47:40.014Z,24.90
2022-10-22T12:50:25.482Z,24.80
2022-10-22T12:53:03.133Z,24.80
2022-10-22T12:58:44.285Z,24.80
2022-10-22T13:01:28.501Z,24.70
2022-10-22T13:04:23.742Z,24.70
2022-10-22T13:07:11.379Z,24.70
2022-10-22T13:09:47.785Z,24.70
2022-10-22T13:12:32.093Z,24.70
2022-10-22T13:15:26.089Z,24.70
2022-10-22T13:18:22.174Z,24.60
2022-10-22T13:21:03.368Z,24.60
2022-10-22T13:23:51.757Z,24.60
2022-10-22T13:26:26.157Z,24.50
2022-10-22T13:29:04.346Z,24.50
2022-10-22T13:31:39.677Z,24.50
2022-10-22T13:34:27.874Z,24.50
2022-10-22T13:37:02.617Z,24.50
2022-10-22T13:39:40.850Z,24.50
2022-10-22T13:42:22.916Z,24.40
2022-10-22T13:45:01.963Z,24.40
2022-10-22T13:47:37.334Z,24.40
2022-10-22T13:50:19.580Z,24.40
2022-10-22T13:52:57.701Z,24.40
2022-10-22T13:55:37.490Z,24.40
2022-10-22T14:00:56.073Z,24.30
2022-10-22T14:03:33.660Z,24.30
2022-10-22T14:06:16.640Z,24.30
2022-10-22T14:08:55.325Z,24.30
2022-10-22T14:11:33.385Z,24.30
2022-10-22T14:14:10.455Z,24.20
2022-10-22T14:16:45.212Z,24.10
2022-10-22T14:19:22.405Z,24.00
2022-10-22T14:21:59.346Z,24.00
2022-10-22T14:24:33.408Z,24.00
2022-10-22T14:27:10.463Z,24.00
2022-10-22T14:29:45.650Z,24.00
2022-10-22T14:32:25.555Z,24.10
2022-10-22T14:35:02.894Z,24.00
2022-10-22T14:37:39.476Z,24.00
2022-10-22T14:40:17.085Z,23.80
2022-10-22T14:42:53.621Z,23.70
2022-10-22T14:45:32.977Z,23.70
2022-10-22T14:48:07.783Z,23.60
2022-10-22T14:50:45.045Z,23.60
2022-10-22T14:53:20.969Z,23.50
2022-10-22T14:55:58.889Z,23.40
2022-10-22T14:58:39.467Z,23.30
2022-10-22T15:01:14.657Z,23.30
2022-10-22T15:03:49.566Z,23.20
2022-10-22T15:06:24.875Z,23.20
2022-10-22T15:09:03.196Z,23.20
2022-10-22T15:11:37.223Z,23.20
2022-10-22T15:14:11.256Z,23.20
2022-10-22T15:16:48.547Z,23.10
2022-10-22T15:19:26.419Z,23.10
2022-10-22T15:22:01.460Z,23.00
2022-10-22T15:24:39.832Z,23.00
2022-10-22T15:27:19.099Z,23.00
2022-10-22T15:29:55.189Z,23.00
2022-10-22T15:32:29.965Z,23.00
2022-10-22T15:35:05.071Z,23.00
2022-10-22T15:37:45.229Z,23.00
2022-10-22T15:40:21.055Z,23.00
2022-10-22T15:42:57.080Z,23.10
2022-10-22T15:45:35.605Z,23.10
2022-10-22T15:48:15.454Z,23.10
2022-10-22T15:50:56.891Z,23.20
2022-10-22T15:53:31.721Z,23.10
2022-10-22T15:56:13.856Z,23.10
2022-10-22T15:58:48.170Z,23.10
2022-10-22T16:01:25.248Z,23.00
2022-10-22T16:04:03.979Z,23.00
2022-10-22T16:06:40.442Z,23.00
2022-10-22T16:09:21.231Z,23.00
2022-10-22T16:12:01.786Z,23.00
2022-10-22T16:14:36.194Z,22.90
2022-10-22T16:17:11.430Z,23.00
2022-10-22T16:19:46.174Z,22.90
2022-10-22T16:22:23.608Z,22.90
2022-10-22T16:25:02.123Z,22.80
2022-10-22T16:27:40.700Z,22.80
2022-10-22T16:30:16.587Z,22.80
2022-10-22T16:32:50.844Z,22.80
2022-10-22T16:35:24.539Z,22.90
2022-10-22T16:38:01.433Z,22.90
2022-10-22T16:40:43.856Z,22.90
2022-10-22T16:43:20.554Z,22.80
2022-10-22T16:45:56.036Z,22.80
2022-10-22T16:48:29.326Z,22.70
2022-10-22T16:51:04.971Z,22.80
2022-10-22T16:53:40.675Z,22.80
2022-10-22T16:56:15.589Z,22.80
2022-10-22T16:58:59.561Z,22.90
2022-10-22T17:01:39.536Z,22.90
2022-10-22T17:04:18.575Z,22.90
2022-10-22T17:06:56.677Z,23.00
2022-10-22T17:09:35.030Z,23.00
2022-10-22T17:12:10.327Z,23.00
2022-10-22T17:14:48.892Z,22.90
2022-10-22T17:17:24.802Z,22.90
2022-10-22T17:19:59.964Z,22.90
2022-10-22T17:22:35.254Z,23.00
2022-10-22T17:25:18.654Z,22.90
2022-10-22T17:27:57.516Z,22.90
2022-10-22T17:30:33.586Z,22.80
2022-10-22T17:33:07.155Z,22.80
2022-10-22T17:35:45.017Z,22.80
2022-10-22T17:38:19.773Z,22.80
2022-10-22T17:40:54.609Z,22.80
2022-10-22T17:43:29.335Z,22.70
2022-10-22T17:46:12.090Z,22.60
2022-10-22T17:48:50.038Z,22.60
2022-10-22T17:51:25.458Z,22.60
2022-10-22T17:54:05.984Z,22.50
2022-10-22T17:56:43.247Z,22.40
2022-10-22T17:59:20.238Z,22.40
2022-10-22T18:02:00.170Z,22.30
2022-10-22T18:04:35.609Z,22.30
2022-10-22T18:07:10.081Z,22.30
2022-10-22T18:09:45.505Z,22.40
2022-10-22T18:12:21.082Z,22.40
2022-10-22T18:14:55.273Z,22.30
2022-10-22T18:17:32.644Z,22.30
2022-10-22T18:20:08.560Z,22.30
2022-10-22T18:22:45.338Z,22.30
2022-10-22T18:25:19.154Z,22.30
2022-10-22T18:27:53.431Z,22.30
2022-10-22T18:30:29.142Z,22.30
2022-10-22T18:33:05.099Z,22.30
2022-10-22T18:35:39.106Z,22.40
2022-10-22T18:38:13.650Z,22.30
2022-10-22T18:40:50.580Z,22.40
2022-10-22T18:43:24.023Z,22.30
2022-10-22T18:45:57.567Z,22.30
2022-10-22T18:48:33.526Z,22.20
2022-10-22T18:51:08.451Z,22.20
2022-10-22T18:53:49.828Z,22.30
2022-10-22T18:56:33.535Z,22.40
2022-10-22T18:59:08.043Z,22.40
2022-10-22T19:01:42.762Z,22.40
2022-10-22T19:04:19.156Z,22.40
2022-10-22T19:06:53.608Z,22.40
2022-10-22T19:09:30.583Z,22.40
2022-10-22T19:12:04.530Z,22.30
2022-10-22T19:14:38.187Z,22.30
2022-10-22T19:17:12.795Z,22.40
2022-10-22T19:19:49.883Z,22.30
2022-10-22T19:22:24.265Z,22.30
2022-10-22T19:24:59.320Z,22.30
2022-10-22T19:27:34.312Z,22.30
2022-10-22T19:30:08.447Z,22.30
2022-10-22T19:32:43.218Z,22.20
2022-10-22T19:35:20.083Z,22.30
2022-10-22T19:37:54.386Z,22.30
2022-10-22T19:40:29.695Z,22.30
2022-10-22T19:43:04.006Z,22.30
2022-10-22T19:45:37.419Z,22.20
2022-10-22T19:48:11.245Z,22.10
2022-10-22T19:50:46.906Z,22.00
2022-10-22T19:53:20.601Z,21.90
2022-10-22T19:55:54.102Z,21.90
2022-10-22T19:58:30.456Z,21.80
2022-10-22T20:01:09.017Z,21.80
2022-10-22T20:03:43.776Z,21.70
2022-10-22T20:06:21.257Z,21.60
2022-10-22T20:08:56.363Z,21.60
2022-10-22T20:11:31.496Z,21.60
2022-10-22T20:14:05.882Z,21.50
2022-10-22T20:16:39.630Z,21.50
2022-10-22T20:19:17.491Z,21.40
2022-10-22T20:21:53.370Z,21.40
2022-10-22T20:24:26.991Z,21.40
2022-10-22T20:27:00.824Z,21.40
2022-10-22T20:29:35.198Z,21.40
2022-10-22T20:32:11.274Z,21.30
2022-10-22T20:34:45.087Z,21.40
2022-10-22T20:37:20.773Z,21.30
2022-10-22T20:39:55.630Z,21.40
2022-10-22T20:42:30.300Z,21.50
2022-10-22T20:45:04.434Z,21.50
2022-10-22T20:47:50.936Z,21.40
2022-10-22T20:50:33.715Z,21.50
2022-10-22T20:53:13.367Z,21.50
2022-10-22T20:55:48.948Z,21.40
2022-10-22T20:58:24.638Z,21.40
2022-10-22T21:01:00.736Z,21.40
2022-10-22T21:06:13.194Z,21.40
2022-10-22T21:08:51.460Z,21.30
2022-10-22T21:11:26.619Z,21.30
2022-10-22T21:14:01.650Z,21.20
2022-10-22T21:16:35.988Z,21.30
2022-10-22T21:19:11.299Z,21.20
2022-10-22T21:21:45.294Z,21.20
2022-10-22T21:24:25.806Z,21.20
2022-10-22T21:27:00.408Z,21.20
2022-10-22T21:29:36.584Z,21.10
2022-10-22T21:32:10.680Z,21.10
2022-10-22T21:34:48.553Z,21.20
2022-10-22T21:37:22.030Z,21.00
2022-10-22T21:39:57.596Z,21.00
2022-10-22T21:42:32.430Z,21.10
2022-10-22T21:45:12.081Z,21.10
2022-10-22T21:47:48.045Z,21.00
2022-10-22T21:50:22.558Z,21.00
2022-10-22T21:52:56.054Z,21.00
2022-10-22T21:55:36.257Z,21.00
2022-10-22T21:58:10.077Z,21.00
2022-10-22T22:00:44.213Z,21.00
2022-10-22T22:03:18.076Z,21.00
2022-10-22T22:05:52.484Z,21.00
2022-10-22T22:08:26.556Z,21.00
2022-10-22T22:11:09.489Z,21.10
2022-10-22T22:13:43.907Z,21.00
2022-10-22T22:16:22.407Z,21.00
2022-10-22T22:19:00.627Z,21.10
2022-10-22T22:21:34.732Z,21.20
2022-10-22T22:24:09.406Z,21.20
2022-10-22T22:26:45.441Z,21.20
2022-10-22T22:29:19.689Z,21.20
2022-10-22T22:31:53.977Z,21.20
2022-10-22T22:34:27.696Z,21.20
2022-10-22T22:37:04.642Z,21.20
2022-10-22T22:39:38.989Z,21.20
2022-10-22T22:42:14.715Z,21.10
2022-10-22T22:44:48.827Z,21.10
2022-10-22T22:47:22.552Z,21.00
2022-10-22T22:49:56.491Z,20.90
2022-10-22T22:52:29.964Z,20.90
2022-10-22T22:55:03.378Z,21.00
2022-10-22T22:57:40.227Z,21.10
2022-10-22T23:00:15.703Z,21.10
2022-10-22T23:02:49.363Z,21.10
2022-10-22T23:05:23.580Z,21.10
2022-10-22T23:07:58.529Z,21.00
2022-10-22T23:10:32.937Z,21.00
2022-10-22T23:13:08.259Z,21.10
2022-10-22T23:15:44.348Z,21.10
2022-10-22T23:18:18.318Z,21.10
2022-10-22T23:20:52.594Z,21.10
2022-10-22T23:23:27.014Z,21.10
2022-10-22T23:26:01.564Z,21.20
2022-10-22T23:28:37.074Z,21.20
2022-10-22T23:31:11.271Z,21.20
2022-10-22T23:33:46.283Z,21.10
2022-10-22T23:36:20.489Z,21.10
2022-10-22T23:38:55.530Z,21.30
2022-10-22T23:41:28.883Z,21.30
2022-10-22T23:44:05.597Z,21.40
2022-10-22T23:46:40.115Z,21.40
2022-10-22T23:49:15.217Z,21.40
2022-10-22T23:51:49.320Z,21.40
2022-10-22T23:54:22.863Z,21.40
2022-10-22T23:56:56.398Z,21.50
2022-10-22T23:59:31.507Z,21.60
